sensor_id;sensor_type;location;lat;lon;timestamp;P1;durP1;ratioP1;P2;durP2;ratioP2
9264;SDS011;4669;49.594;10.958;2022-11-02T05:24:51;7.82;;;4.40;;
9264;SDS011;4669;49.594;10.958;2022-11-02T05:29:53;8.30;;;4.65;;
9264;SDS011;4669;49.594;10.958;2022-11-02T05:34:56;8.30;;;3.85;;
9264;SDS011;4669;49.594;10.958;2022-11-02T05:40:00;7.22;;;3.88;;
9264;SDS011;4669;49.594;10.958;2022-11-02T05:45:02;10.45;;;3.88;;
9264;SDS011;4669;49.594;10.958;2022-11-02T05:50:05;4.88;;;3.67;;
9264;SDS011;4669;49.594;10.958;2022-11-02T05:55:09;16.20;;;9.30;;
9264;SDS011;4669;49.594;10.958;2022-11-02T06:00:11;6.93;;;3.92;;
9264;SDS011;4669;49.594;10.958;2022-11-02T06:05:13;8.48;;;4.10;;
9264;SDS011;4669;49.594;10.958;2022-11-02T06:10:17;7.80;;;4.03;;
9264;SDS011;4669;49.594;10.958;2022-11-02T06:15:19;9.30;;;4.63;;
9264;SDS011;4669;49.594;10.958;2022-11-02T06:20:21;11.25;;;4.38;;
9264;SDS011;4669;49.594;10.958;2022-11-02T06:25:25;11.32;;;4.43;;
9264;SDS011;4669;49.594;10.958;2022-11-02T06:30:27;10.27;;;4.85;;
9264;SDS011;4669;49.594;10.958;2022-11-02T06:35:29;11.38;;;7.45;;
9264;SDS011;4669;49.594;10.958;2022-11-02T06:40:32;10.48;;;4.70;;
9264;SDS011;4669;49.594;10.958;2022-11-02T06:45:34;5.05;;;4.03;;
9264;SDS011;4669;49.594;10.958;2022-11-02T06:50:36;7.45;;;4.22;;
9264;SDS011;4669;49.594;10.958;2022-11-02T06:55:40;10.50;;;5.07;;
9264;SDS011;4669;49.594;10.958;2022-11-02T07:00:42;9.13;;;4.85;;
9264;SDS011;4669;49.594;10.958;2022-11-02T07:05:49;7.85;;;4.32;;
9264;SDS011;4669;49.594;10.958;2022-11-02T07:10:53;10.60;;;4.30;;
9264;SDS011;4669;49.594;10.958;2022-11-02T07:15:55;10.13;;;3.50;;
9264;SDS011;4669;49.594;10.958;2022-11-02T07:20:57;5.75;;;3.20;;
9264;SDS011;4669;49.594;10.958;2022-11-02T07:26:01;5.93;;;2.67;;
9264;SDS011;4669;49.594;10.958;2022-11-02T07:31:04;8.35;;;3.15;;
9264;SDS011;4669;49.594;10.958;2022-11-02T07:36:06;7.82;;;3.40;;
9264;SDS011;4669;49.594;10.958;2022-11-02T07:41:10;6.90;;;3.00;;
9264;SDS011;4669;49.594;10.958;2022-11-02T07:46:12;7.28;;;2.90;;
9264;SDS011;4669;49.594;10.958;2022-11-02T07:51:14;8.95;;;2.72;;
9264;SDS011;4669;49.594;10.958;2022-11-02T07:56:17;7.40;;;3.17;;
9264;SDS011;4669;49.594;10.958;2022-11-02T08:01:20;7.60;;;2.67;;
9264;SDS011;4669;49.594;10.958;2022-11-02T08:06:22;6.38;;;2.65;;
9264;SDS011;4669;49.594;10.958;2022-11-02T08:11:25;8.55;;;2.45;;
9264;SDS011;4669;49.594;10.958;2022-11-02T08:16:27;8.38;;;2.63;;
9264;SDS011;4669;49.594;10.958;2022-11-02T08:21:29;7.47;;;2.80;;
9264;SDS011;4669;49.594;10.958;2022-11-02T08:26:33;8.65;;;3.65;;
9264;SDS011;4669;49.594;10.958;2022-11-02T08:31:35;7.32;;;3.63;;
9264;SDS011;4669;49.594;10.958;2022-11-02T08:36:37;8.45;;;3.33;;
9264;SDS011;4669;49.594;10.958;2022-11-02T08:41:40;8.15;;;3.15;;
9264;SDS011;4669;49.594;10.958;2022-11-02T08:46:43;9.95;;;3.58;;
9264;SDS011;4669;49.594;10.958;2022-11-02T08:51:45;6.75;;;2.92;;
9264;SDS011;4669;49.594;10.958;2022-11-02T08:56:48;10.32;;;3.80;;
9264;SDS011;4669;49.594;10.958;2022-11-02T09:01:50;9.10;;;2.67;;
9264;SDS011;4669;49.594;10.958;2022-11-02T09:06:52;5.32;;;2.28;;
9264;SDS011;4669;49.594;10.958;2022-11-02T09:11:56;5.80;;;2.55;;
9264;SDS011;4669;49.594;10.958;2022-11-02T09:16:58;10.55;;;2.55;;
9264;SDS011;4669;49.594;10.958;2022-11-02T09:22:00;6.03;;;2.10;;
9264;SDS011;4669;49.594;10.958;2022-11-02T09:27:03;7.18;;;2.15;;
9264;SDS011;4669;49.594;10.958;2022-11-02T09:32:05;8.05;;;2.15;;
9264;SDS011;4669;49.594;10.958;2022-11-02T09:37:07;4.97;;;2.15;;
9264;SDS011;4669;49.594;10.958;2022-11-02T09:42:12;5.57;;;1.90;;
9264;SDS011;4669;49.594;10.958;2022-11-02T09:47:19;7.80;;;2.03;;
9264;SDS011;4669;49.594;10.958;2022-11-02T09:52:23;8.27;;;2.13;;
9264;SDS011;4669;49.594;10.958;2022-11-02T09:57:31;9.93;;;2.38;;
9264;SDS011;4669;49.594;10.958;2022-11-02T10:02:38;10.75;;;2.78;;
9264;SDS011;4669;49.594;10.958;2022-11-02T10:07:57;9.65;;;2.13;;
9264;SDS011;4669;49.594;10.958;2022-11-02T10:13:21;6.78;;;2.30;;
9264;SDS011;4669;49.594;10.958;2022-11-02T10:18:34;8.98;;;2.20;;
9264;SDS011;4669;49.594;10.958;2022-11-02T10:23:37;9.00;;;2.33;;
9264;SDS011;4669;49.594;10.958;2022-11-02T10:28:45;8.20;;;1.98;;
9264;SDS011;4669;49.594;10.958;2022-11-02T10:33:49;8.43;;;2.25;;
9264;SDS011;4669;49.594;10.958;2022-11-02T10:38:54;7.38;;;2.60;;
9264;SDS011;4669;49.594;10.958;2022-11-02T10:44:10;7.53;;;2.30;;
9264;SDS011;4669;49.594;10.958;2022-11-02T10:49:48;6.68;;;2.25;;
9264;SDS011;4669;49.594;10.958;2022-11-02T10:55:04;9.23;;;2.10;;
9264;SDS011;4669;49.594;10.958;2022-11-02T11:00:25;7.10;;;2.20;;
9264;SDS011;4669;49.594;10.958;2022-11-02T11:05:29;8.70;;;2.67;;
9264;SDS011;4669;49.594;10.958;2022-11-02T11:10:35;12.07;;;2.20;;
9264;SDS011;4669;49.594;10.958;2022-11-02T11:15:39;9.70;;;2.17;;
9264;SDS011;4669;49.594;10.958;2022-11-02T11:20:42;7.65;;;2.50;;
9264;SDS011;4669;49.594;10.958;2022-11-02T11:25:58;8.40;;;2.25;;
9264;SDS011;4669;49.594;10.958;2022-11-02T11:31:12;7.07;;;1.73;;
9264;SDS011;4669;49.594;10.958;2022-11-02T11:36:21;6.45;;;2.15;;
9264;SDS011;4669;49.594;10.958;2022-11-02T11:41:25;3.63;;;1.88;;
9264;SDS011;4669;49.594;10.958;2022-11-02T11:46:38;8.85;;;2.45;;
9264;SDS011;4669;49.594;10.958;2022-11-02T11:51:42;11.93;;;2.10;;
9264;SDS011;4669;49.594;10.958;2022-11-02T11:56:51;5.05;;;1.85;;
9264;SDS011;4669;49.594;10.958;2022-11-02T12:01:56;7.82;;;1.95;;
9264;SDS011;4669;49.594;10.958;2022-11-02T12:12:30;8.68;;;2.25;;
9264;SDS011;4669;49.594;10.958;2022-11-02T12:17:46;10.00;;;2.08;;
9264;SDS011;4669;49.594;10.958;2022-11-02T12:22:58;9.40;;;2.33;;
9264;SDS011;4669;49.594;10.958;2022-11-02T12:28:12;8.30;;;2.97;;
9264;SDS011;4669;49.594;10.958;2022-11-02T12:33:27;5.95;;;2.47;;
9264;SDS011;4669;49.594;10.958;2022-11-02T12:38:42;7.15;;;2.25;;
9264;SDS011;4669;49.594;10.958;2022-11-02T12:43:53;10.95;;;2.78;;
9264;SDS011;4669;49.594;10.958;2022-11-02T12:49:10;6.18;;;2.20;;
9264;SDS011;4669;49.594;10.958;2022-11-02T12:54:24;8.43;;;2.25;;
9264;SDS011;4669;49.594;10.958;2022-11-02T12:59:29;6.68;;;2.10;;
9264;SDS011;4669;49.594;10.958;2022-11-02T13:04:37;5.68;;;2.55;;
9264;SDS011;4669;49.594;10.958;2022-11-02T13:09:48;5.07;;;1.70;;
9264;SDS011;4669;49.594;10.958;2022-11-02T13:14:54;7.43;;;2.20;;
9264;SDS011;4669;49.594;10.958;2022-11-02T13:20:00;5.88;;;2.10;;
9264;SDS011;4669;49.594;10.958;2022-11-02T13:25:11;6.45;;;2.20;;
9264;SDS011;4669;49.594;10.958;2022-11-02T13:30:16;4.93;;;1.73;;
9264;SDS011;4669;49.594;10.958;2022-11-02T13:35:22;5.45;;;1.80;;
9264;SDS011;4669;49.594;10.958;2022-11-02T13:40:28;5.35;;;1.58;;
9264;SDS011;4669;49.594;10.958;2022-11-02T13:45:37;6.05;;;1.70;;
9264;SDS011;4669;49.594;10.958;2022-11-02T13:50:55;8.20;;;2.25;;
9264;SDS011;4669;49.594;10.958;2022-11-02T13:56:00;5.30;;;1.88;;
9264;SDS011;4669;49.594;10.958;2022-11-02T14:01:08;5.20;;;2.20;;
9264;SDS011;4669;49.594;10.958;2022-11-02T14:06:17;7.13;;;2.05;;
9264;SDS011;4669;49.594;10.958;2022-11-02T14:11:24;13.88;;;2.85;;
9264;SDS011;4669;49.594;10.958;2022-11-02T14:16:39;7.78;;;3.10;;
9264;SDS011;4669;49.594;10.958;2022-11-02T14:22:02;7.88;;;2.38;;
9264;SDS011;4669;49.594;10.958;2022-11-02T14:32:38;10.70;;;2.50;;
9264;SDS011;4669;49.594;10.958;2022-11-02T14:48:44;7.25;;;2.13;;
9264;SDS011;4669;49.594;10.958;2022-11-02T14:53:52;5.68;;;1.98;;
9264;SDS011;4669;49.594;10.958;2022-11-02T14:58:57;9.48;;;2.22;;
9264;SDS011;4669;49.594;10.958;2022-11-02T15:04:04;7.43;;;2.13;;
9264;SDS011;4669;49.594;10.958;2022-11-02T15:09:09;10.48;;;3.10;;
9264;SDS011;4669;49.594;10.958;2022-11-02T15:19:36;6.85;;;2.35;;
9264;SDS011;4669;49.594;10.958;2022-11-02T15:24:41;8.65;;;2.60;;
9264;SDS011;4669;49.594;10.958;2022-11-02T15:29:45;8.88;;;3.75;;
9264;SDS011;4669;49.594;10.958;2022-11-02T15:34:48;9.45;;;4.32;;
9264;SDS011;4669;49.594;10.958;2022-11-02T15:39:54;9.50;;;2.78;;
9264;SDS011;4669;49.594;10.958;2022-11-02T15:45:02;10.30;;;2.90;;
9264;SDS011;4669;49.594;10.958;2022-11-02T15:50:19;6.50;;;2.40;;
9264;SDS011;4669;49.594;10.958;2022-11-02T15:55:34;9.73;;;3.42;;
9264;SDS011;4669;49.594;10.958;2022-11-02T16:06:22;6.95;;;2.22;;
9264;SDS011;4669;49.594;10.958;2022-11-02T16:11:26;8.10;;;2.45;;
9264;SDS011;4669;49.594;10.958;2022-11-02T16:16:29;7.40;;;2.33;;
9264;SDS011;4669;49.594;10.958;2022-11-02T16:21:31;8.40;;;2.70;;
9264;SDS011;4669;49.594;10.958;2022-11-02T16:26:34;7.63;;;4.05;;
9264;SDS011;4669;49.594;10.958;2022-11-02T16:31:36;12.35;;;4.50;;
9264;SDS011;4669;49.594;10.958;2022-11-02T16:36:40;8.70;;;4.90;;
9264;SDS011;4669;49.594;10.958;2022-11-02T16:41:46;11.55;;;4.72;;
9264;SDS011;4669;49.594;10.958;2022-11-02T16:46:51;16.33;;;8.90;;
9264;SDS011;4669;49.594;10.958;2022-11-02T16:51:56;18.73;;;9.93;;
9264;SDS011;4669;49.594;10.958;2022-11-02T16:57:02;15.75;;;8.90;;
9264;SDS011;4669;49.594;10.958;2022-11-02T17:02:08;22.13;;;13.38;;
9264;SDS011;4669;49.594;10.958;2022-11-02T17:07:13;19.00;;;9.90;;
9264;SDS011;4669;49.594;10.958;2022-11-02T17:12:22;14.60;;;7.95;;
9264;SDS011;4669;49.594;10.958;2022-11-02T17:17:35;16.25;;;9.43;;
9264;SDS011;4669;49.594;10.958;2022-11-02T17:22:47;9.25;;;5.63;;
9264;SDS011;4669;49.594;10.958;2022-11-02T17:27:52;13.75;;;7.88;;
9264;SDS011;4669;49.594;10.958;2022-11-02T17:32:55;12.15;;;6.28;;
9264;SDS011;4669;49.594;10.958;2022-11-02T17:37:57;14.90;;;5.40;;
9264;SDS011;4669;49.594;10.958;2022-11-02T17:43:01;10.23;;;5.60;;
9264;SDS011;4669;49.594;10.958;2022-11-02T17:48:03;6.90;;;4.60;;
9264;SDS011;4669;49.594;10.958;2022-11-02T17:53:08;13.68;;;7.03;;
9264;SDS011;4669;49.594;10.958;2022-11-02T17:58:14;17.83;;;10.27;;
9264;SDS011;4669;49.594;10.958;2022-11-02T18:03:16;14.98;;;8.40;;
9264;SDS011;4669;49.594;10.958;2022-11-02T18:08:20;16.38;;;9.23;;
9264;SDS011;4669;49.594;10.958;2022-11-02T18:13:23;17.83;;;8.38;;
9264;SDS011;4669;49.594;10.958;2022-11-02T18:18:25;11.57;;;6.85;;
9264;SDS011;4669;49.594;10.958;2022-11-02T18:23:27;19.73;;;12.13;;
9264;SDS011;4669;49.594;10.958;2022-11-02T18:28:31;27.90;;;11.50;;
9264;SDS011;4669;49.594;10.958;2022-11-02T18:33:34;21.65;;;9.90;;
9264;SDS011;4669;49.594;10.958;2022-11-02T18:38:36;27.25;;;18.15;;
9264;SDS011;4669;49.594;10.958;2022-11-02T18:43:39;32.95;;;21.02;;
9264;SDS011;4669;49.594;10.958;2022-11-02T18:48:42;35.20;;;21.92;;
9264;SDS011;4669;49.594;10.958;2022-11-02T18:53:51;25.17;;;16.23;;
9264;SDS011;4669;49.594;10.958;2022-11-02T18:58:56;26.92;;;16.38;;
9264;SDS011;4669;49.594;10.958;2022-11-02T19:04:00;24.95;;;15.95;;
9264;SDS011;4669;49.594;10.958;2022-11-02T19:09:04;29.92;;;14.38;;
9264;SDS011;4669;49.594;10.958;2022-11-02T19:14:22;23.30;;;14.50;;
9264;SDS011;4669;49.594;10.958;2022-11-02T19:19:24;23.20;;;14.13;;
9264;SDS011;4669;49.594;10.958;2022-11-02T19:24:26;24.63;;;15.35;;
9264;SDS011;4669;49.594;10.958;2022-11-02T19:29:29;25.33;;;15.85;;
9264;SDS011;4669;49.594;10.958;2022-11-02T19:34:33;19.05;;;12.40;;
9264;SDS011;4669;49.594;10.958;2022-11-02T19:39:36;22.48;;;12.57;;
9264;SDS011;4669;49.594;10.958;2022-11-02T19:44:39;16.13;;;11.57;;
9264;SDS011;4669;49.594;10.958;2022-11-02T19:49:41;23.42;;;14.52;;
9264;SDS011;4669;49.594;10.958;2022-11-02T19:54:43;34.33;;;22.65;;
9264;SDS011;4669;49.594;10.958;2022-11-02T19:59:47;16.75;;;9.10;;
9264;SDS011;4669;49.594;10.958;2022-11-02T20:04:51;16.75;;;10.02;;
9264;SDS011;4669;49.594;10.958;2022-11-02T20:09:53;17.35;;;10.40;;
9264;SDS011;4669;49.594;10.958;2022-11-02T20:14:56;17.85;;;10.82;;
9264;SDS011;4669;49.594;10.958;2022-11-02T20:19:58;20.35;;;11.30;;
9264;SDS011;4669;49.594;10.958;2022-11-02T20:25:00;19.38;;;12.77;;
9264;SDS011;4669;49.594;10.958;2022-11-02T20:30:04;21.98;;;13.75;;
9264;SDS011;4669;49.594;10.958;2022-11-02T20:35:07;20.13;;;13.85;;
9264;SDS011;4669;49.594;10.958;2022-11-02T20:40:10;18.77;;;14.45;;
9264;SDS011;4669;49.594;10.958;2022-11-02T20:45:14;20.42;;;14.60;;
9264;SDS011;4669;49.594;10.958;2022-11-02T20:50:17;22.33;;;14.75;;
9264;SDS011;4669;49.594;10.958;2022-11-02T20:55:18;19.65;;;12.80;;
9264;SDS011;4669;49.594;10.958;2022-11-02T21:00:22;19.98;;;11.77;;
9264;SDS011;4669;49.594;10.958;2022-11-02T21:05:25;15.52;;;10.00;;
9264;SDS011;4669;49.594;10.958;2022-11-02T21:10:27;17.30;;;8.43;;
9264;SDS011;4669;49.594;10.958;2022-11-02T21:15:30;19.70;;;9.68;;
9264;SDS011;4669;49.594;10.958;2022-11-02T21:20:34;17.65;;;10.25;;
9264;SDS011;4669;49.594;10.958;2022-11-02T21:25:36;15.10;;;9.82;;
9264;SDS011;4669;49.594;10.958;2022-11-02T21:30:40;17.58;;;9.95;;
9264;SDS011;4669;49.594;10.958;2022-11-02T21:35:42;21.17;;;11.68;;
9264;SDS011;4669;49.594;10.958;2022-11-02T21:40:44;13.05;;;8.70;;
9264;SDS011;4669;49.594;10.958;2022-11-02T21:45:49;15.20;;;7.82;;
9264;SDS011;4669;49.594;10.958;2022-11-02T21:50:59;14.07;;;7.07;;
9264;SDS011;4669;49.594;10.958;2022-11-02T21:56:04;11.52;;;6.43;;
9264;SDS011;4669;49.594;10.958;2022-11-02T22:01:11;20.10;;;7.22;;
9264;SDS011;4669;49.594;10.958;2022-11-02T22:06:32;14.23;;;7.03;;
9264;SDS011;4669;49.594;10.958;2022-11-02T22:11:37;11.23;;;6.63;;
9264;SDS011;4669;49.594;10.958;2022-11-02T22:16:40;9.07;;;5.68;;
9264;SDS011;4669;49.594;10.958;2022-11-02T22:21:43;10.43;;;6.72;;
9264;SDS011;4669;49.594;10.958;2022-11-02T22:26:48;14.57;;;7.82;;
9264;SDS011;4669;49.594;10.958;2022-11-02T22:31:51;10.98;;;6.53;;
9264;SDS011;4669;49.594;10.958;2022-11-02T22:36:53;16.83;;;6.40;;
9264;SDS011;4669;49.594;10.958;2022-11-02T22:42:15;10.93;;;6.35;;
9264;SDS011;4669;49.594;10.958;2022-11-02T22:47:19;12.60;;;6.53;;
9264;SDS011;4669;49.594;10.958;2022-11-02T22:52:21;12.48;;;6.25;;
9264;SDS011;4669;49.594;10.958;2022-11-02T22:57:23;9.63;;;5.55;;
